sensor_id;sensor_type;location;lat;lon;timestamp;pressure;altitude;pressure_sealevel;temperature;humidity
41862;BME280;27537;57.134;-2.136;2023-09-30T00:02:27;101081.31;;;13.16;100.00
41862;BME280;27537;57.134;-2.136;2023-09-30T00:04:54;101087.78;;;13.09;100.00
41862;BME280;27537;57.134;-2.136;2023-09-30T00:07:21;101088.00;;;13.03;100.00
41862;BME280;27537;57.134;-2.136;2023-09-30T00:09:48;101104.06;;;12.97;100.00
41862;BME280;27537;57.134;-2.136;2023-09-30T00:12:15;101104.22;;;12.92;100.00
41862;BME280;27537;57.134;-2.136;2023-09-30T00:14:42;101104.63;;;12.83;100.00
41862;BME280;27537;57.134;-2.136;2023-09-30T00:17:09;101108.88;;;12.85;100.00
41862;BME280;27537;57.134;-2.136;2023-09-30T00:19:36;101113.28;;;12.85;100.00
41862;BME280;27537;57.134;-2.136;2023-09-30T00:22:03;101110.97;;;12.77;100.00
41862;BME280;27537;57.134;-2.136;2023-09-30T00:24:30;101112.94;;;12.72;100.00
41862;BME280;27537;57.134;-2.136;2023-09-30T00:26:57;101114.06;;;12.66;100.00
41862;BME280;27537;57.134;-2.136;2023-09-30T00:29:23;101131.81;;;12.60;100.00
41862;BME280;27537;57.134;-2.136;2023-09-30T00:31:50;101129.38;;;12.33;100.00
41862;BME280;27537;57.134;-2.136;2023-09-30T00:34:17;101130.00;;;12.16;100.00
41862;BME280;27537;57.134;-2.136;2023-09-30T00:36:43;101133.28;;;11.99;100.00
41862;BME280;27537;57.134;-2.136;2023-09-30T00:39:10;101127.56;;;11.86;100.00
41862;BME280;27537;57.134;-2.136;2023-09-30T00:41:40;101130.00;;;11.92;100.00
41862;BME280;27537;57.134;-2.136;2023-09-30T00:44:07;101125.25;;;12.02;100.00
41862;BME280;27537;57.134;-2.136;2023-09-30T00:46:39;101130.25;;;12.10;100.00
41862;BME280;27537;57.134;-2.136;2023-09-30T00:49:07;101139.91;;;12.09;100.00
41862;BME280;27537;57.134;-2.136;2023-09-30T00:51:34;101139.41;;;11.98;100.00
41862;BME280;27537;57.134;-2.136;2023-09-30T00:54:01;101145.69;;;11.94;100.00
41862;BME280;27537;57.134;-2.136;2023-09-30T00:56:30;101141.56;;;11.87;100.00
41862;BME280;27537;57.134;-2.136;2023-09-30T00:58:57;101149.28;;;11.91;100.00
41862;BME280;27537;57.134;-2.136;2023-09-30T01:01:25;101153.81;;;11.86;100.00
41862;BME280;27537;57.134;-2.136;2023-09-30T01:03:52;101157.16;;;11.91;100.00
41862;BME280;27537;57.134;-2.136;2023-09-30T01:06:19;101148.78;;;11.80;100.00
41862;BME280;27537;57.134;-2.136;2023-09-30T01:08:46;101154.78;;;11.84;100.00
41862;BME280;27537;57.134;-2.136;2023-09-30T01:11:13;101162.16;;;11.74;100.00
41862;BME280;27537;57.134;-2.136;2023-09-30T01:13:40;101170.91;;;11.73;100.00
41862;BME280;27537;57.134;-2.136;2023-09-30T01:16:08;101177.34;;;11.64;100.00
41862;BME280;27537;57.134;-2.136;2023-09-30T01:18:39;101173.22;;;11.57;100.00
41862;BME280;27537;57.134;-2.136;2023-09-30T01:21:10;101175.94;;;11.54;100.00
41862;BME280;27537;57.134;-2.136;2023-09-30T01:23:38;101183.06;;;11.50;100.00
41862;BME280;27537;57.134;-2.136;2023-09-30T01:26:11;101174.81;;;11.36;100.00
41862;BME280;27537;57.134;-2.136;2023-09-30T01:28:41;101188.53;;;11.44;100.00
41862;BME280;27537;57.134;-2.136;2023-09-30T01:31:08;101180.94;;;11.35;100.00
41862;BME280;27537;57.134;-2.136;2023-09-30T01:33:35;101188.63;;;11.41;100.00
41862;BME280;27537;57.134;-2.136;2023-09-30T01:36:02;101175.81;;;11.32;100.00
41862;BME280;27537;57.134;-2.136;2023-09-30T01:38:28;101180.19;;;11.31;100.00
41862;BME280;27537;57.134;-2.136;2023-09-30T01:40:55;101182.06;;;11.28;100.00
41862;BME280;27537;57.134;-2.136;2023-09-30T01:43:25;101187.00;;;11.37;100.00
41862;BME280;27537;57.134;-2.136;2023-09-30T01:45:52;101186.44;;;11.27;100.00
41862;BME280;27537;57.134;-2.136;2023-09-30T01:48:19;101190.13;;;11.21;100.00
41862;BME280;27537;57.134;-2.136;2023-09-30T01:50:46;101195.56;;;11.15;100.00
41862;BME280;27537;57.134;-2.136;2023-09-30T01:53:14;101188.47;;;11.19;100.00
41862;BME280;27537;57.134;-2.136;2023-09-30T01:55:41;101183.03;;;11.25;100.00
41862;BME280;27537;57.134;-2.136;2023-09-30T01:58:08;101179.50;;;11.26;100.00
41862;BME280;27537;57.134;-2.136;2023-09-30T02:00:37;101189.16;;;11.24;100.00
41862;BME280;27537;57.134;-2.136;2023-09-30T02:03:04;101197.03;;;11.24;100.00
41862;BME280;27537;57.134;-2.136;2023-09-30T02:05:31;101195.44;;;11.20;100.00
41862;BME280;27537;57.134;-2.136;2023-09-30T02:07:58;101200.13;;;11.10;100.00
41862;BME280;27537;57.134;-2.136;2023-09-30T02:10:24;101199.50;;;11.02;100.00
41862;BME280;27537;57.134;-2.136;2023-09-30T02:12:51;101200.53;;;10.98;100.00
41862;BME280;27537;57.134;-2.136;2023-09-30T02:15:18;101205.84;;;10.95;100.00
41862;BME280;27537;57.134;-2.136;2023-09-30T02:17:44;101216.59;;;10.87;100.00
41862;BME280;27537;57.134;-2.136;2023-09-30T02:20:12;101219.88;;;10.92;100.00
41862;BME280;27537;57.134;-2.136;2023-09-30T02:22:43;101220.94;;;10.87;100.00
41862;BME280;27537;57.134;-2.136;2023-09-30T02:25:13;101215.47;;;10.94;100.00
41862;BME280;27537;57.134;-2.136;2023-09-30T02:27:41;101217.44;;;10.88;100.00
41862;BME280;27537;57.134;-2.136;2023-09-30T02:30:12;101214.72;;;10.91;100.00
41862;BME280;27537;57.134;-2.136;2023-09-30T02:32:40;101211.44;;;10.84;100.00
41862;BME280;27537;57.134;-2.136;2023-09-30T02:35:08;101229.25;;;10.99;100.00
41862;BME280;27537;57.134;-2.136;2023-09-30T02:37:38;101213.78;;;10.92;100.00
41862;BME280;27537;57.134;-2.136;2023-09-30T02:40:06;101222.00;;;11.09;100.00
41862;BME280;27537;57.134;-2.136;2023-09-30T02:42:40;101230.56;;;11.14;100.00
41862;BME280;27537;57.134;-2.136;2023-09-30T02:45:08;101215.13;;;11.05;100.00
41862;BME280;27537;57.134;-2.136;2023-09-30T02:47:36;101238.59;;;11.08;100.00
41862;BME280;27537;57.134;-2.136;2023-09-30T02:50:05;101239.44;;;11.10;100.00
41862;BME280;27537;57.134;-2.136;2023-09-30T02:52:32;101239.53;;;11.07;100.00
41862;BME280;27537;57.134;-2.136;2023-09-30T02:54:59;101246.47;;;11.08;100.00
41862;BME280;27537;57.134;-2.136;2023-09-30T02:57:26;101255.22;;;11.09;100.00
41862;BME280;27537;57.134;-2.136;2023-09-30T02:59:56;101260.66;;;11.01;100.00
41862;BME280;27537;57.134;-2.136;2023-09-30T03:02:23;101254.72;;;10.96;100.00
41862;BME280;27537;57.134;-2.136;2023-09-30T03:04:50;101270.31;;;11.00;100.00
41862;BME280;27537;57.134;-2.136;2023-09-30T03:07:19;101252.00;;;10.99;100.00
41862;BME280;27537;57.134;-2.136;2023-09-30T03:09:46;101248.66;;;10.94;100.00
41862;BME280;27537;57.134;-2.136;2023-09-30T03:12:13;101248.00;;;10.87;100.00
41862;BME280;27537;57.134;-2.136;2023-09-30T03:14:40;101254.97;;;10.88;100.00
41862;BME280;27537;57.134;-2.136;2023-09-30T03:17:07;101263.44;;;10.96;100.00
41862;BME280;27537;57.134;-2.136;2023-09-30T03:19:38;101266.03;;;10.98;100.00
41862;BME280;27537;57.134;-2.136;2023-09-30T03:22:06;101272.97;;;10.99;100.00
41862;BME280;27537;57.134;-2.136;2023-09-30T03:24:39;101273.13;;;10.94;100.00
41862;BME280;27537;57.134;-2.136;2023-09-30T03:27:07;101271.06;;;11.04;100.00
41862;BME280;27537;57.134;-2.136;2023-09-30T03:29:37;101279.84;;;11.03;100.00
41862;BME280;27537;57.134;-2.136;2023-09-30T03:32:05;101291.19;;;11.04;100.00
41862;BME280;27537;57.134;-2.136;2023-09-30T03:34:32;101301.56;;;11.07;100.00
41862;BME280;27537;57.134;-2.136;2023-09-30T03:36:58;101297.25;;;11.04;100.00
41862;BME280;27537;57.134;-2.136;2023-09-30T03:39:25;101296.50;;;11.00;100.00
41862;BME280;27537;57.134;-2.136;2023-09-30T03:41:56;101293.88;;;11.00;100.00
41862;BME280;27537;57.134;-2.136;2023-09-30T03:44:24;101279.97;;;10.98;100.00
41862;BME280;27537;57.134;-2.136;2023-09-30T03:46:51;101286.97;;;10.98;100.00
41862;BME280;27537;57.134;-2.136;2023-09-30T03:49:19;101285.34;;;10.94;100.00
41862;BME280;27537;57.134;-2.136;2023-09-30T03:51:49;101248.50;;;10.70;100.00
41862;BME280;27537;57.134;-2.136;2023-09-30T03:54:17;101280.25;;;10.89;100.00
41862;BME280;27537;57.134;-2.136;2023-09-30T03:56:47;101280.59;;;10.78;100.00
41862;BME280;27537;57.134;-2.136;2023-09-30T03:59:14;101284.28;;;10.71;100.00
41862;BME280;27537;57.134;-2.136;2023-09-30T04:01:42;101297.47;;;10.68;100.00
41862;BME280;27537;57.134;-2.136;2023-09-30T04:04:09;101305.63;;;10.57;100.00
41862;BME280;27537;57.134;-2.136;2023-09-30T04:06:37;101315.84;;;10.67;100.00
41862;BME280;27537;57.134;-2.136;2023-09-30T04:09:05;101314.53;;;10.81;100.00
41862;BME280;27537;57.134;-2.136;2023-09-30T04:11:39;101314.28;;;10.91;100.00
41862;BME280;27537;57.134;-2.136;2023-09-30T04:14:06;101312.56;;;10.90;100.00
41862;BME280;27537;57.134;-2.136;2023-09-30T04:16:34;101312.63;;;10.87;100.00
41862;BME280;27537;57.134;-2.136;2023-09-30T04:19:02;101313.31;;;10.93;100.00
41862;BME280;27537;57.134;-2.136;2023-09-30T04:21:29;101317.66;;;10.94;100.00
41862;BME280;27537;57.134;-2.136;2023-09-30T04:23:58;101313.59;;;10.84;100.00
41862;BME280;27537;57.134;-2.136;2023-09-30T04:26:25;101321.94;;;10.67;100.00
41862;BME280;27537;57.134;-2.136;2023-09-30T04:28:52;101337.47;;;10.73;100.00
41862;BME280;27537;57.134;-2.136;2023-09-30T04:31:20;101336.44;;;10.79;100.00
41862;BME280;27537;57.134;-2.136;2023-09-30T04:33:49;101347.59;;;10.86;100.00
41862;BME280;27537;57.134;-2.136;2023-09-30T04:36:17;101322.13;;;10.61;100.00
41862;BME280;27537;57.134;-2.136;2023-09-30T04:38:44;101336.78;;;10.67;100.00
41862;BME280;27537;57.134;-2.136;2023-09-30T04:41:11;101325.50;;;10.64;100.00
41862;BME280;27537;57.134;-2.136;2023-09-30T04:43:37;101301.81;;;10.38;100.00
41862;BME280;27537;57.134;-2.136;2023-09-30T04:46:05;101336.50;;;10.44;100.00
41862;BME280;27537;57.134;-2.136;2023-09-30T04:48:34;101331.66;;;10.31;100.00
41862;BME280;27537;57.134;-2.136;2023-09-30T04:51:05;101363.66;;;10.42;100.00
41862;BME280;27537;57.134;-2.136;2023-09-30T04:53:32;101356.78;;;10.38;100.00
41862;BME280;27537;57.134;-2.136;2023-09-30T04:56:00;101373.91;;;10.50;100.00
41862;BME280;27537;57.134;-2.136;2023-09-30T04:58:27;101366.28;;;10.42;100.00
41862;BME280;27537;57.134;-2.136;2023-09-30T05:00:56;101368.47;;;10.57;100.00
41862;BME280;27537;57.134;-2.136;2023-09-30T05:03:24;101358.34;;;10.45;100.00
41862;BME280;27537;57.134;-2.136;2023-09-30T05:05:52;101369.09;;;10.34;100.00
41862;BME280;27537;57.134;-2.136;2023-09-30T05:08:23;101380.63;;;10.25;100.00
41862;BME280;27537;57.134;-2.136;2023-09-30T05:10:50;101385.06;;;10.23;100.00
41862;BME280;27537;57.134;-2.136;2023-09-30T05:13:17;101373.81;;;10.20;100.00
41862;BME280;27537;57.134;-2.136;2023-09-30T05:15:44;101379.72;;;10.26;100.00
41862;BME280;27537;57.134;-2.136;2023-09-30T05:18:10;101366.00;;;10.18;100.00
41862;BME280;27537;57.134;-2.136;2023-09-30T05:20:37;101392.97;;;10.20;100.00
41862;BME280;27537;57.134;-2.136;2023-09-30T05:23:05;101391.84;;;9.95;100.00
41862;BME280;27537;57.134;-2.136;2023-09-30T05:25:33;101394.31;;;10.02;100.00
41862;BME280;27537;57.134;-2.136;2023-09-30T05:28:00;101405.13;;;10.23;100.00
41862;BME280;27537;57.134;-2.136;2023-09-30T05:30:27;101408.66;;;10.22;100.00
41862;BME280;27537;57.134;-2.136;2023-09-30T05:32:53;101430.06;;;10.39;100.00
41862;BME280;27537;57.134;-2.136;2023-09-30T05:35:21;101417.91;;;10.35;100.00
41862;BME280;27537;57.134;-2.136;2023-09-30T05:37:49;101420.63;;;10.31;100.00
41862;BME280;27537;57.134;-2.136;2023-09-30T05:40:20;101403.69;;;10.11;100.00
41862;BME280;27537;57.134;-2.136;2023-09-30T05:42:49;101406.03;;;10.22;100.00
41862;BME280;27537;57.134;-2.136;2023-09-30T05:45:16;101398.06;;;10.25;100.00
41862;BME280;27537;57.134;-2.136;2023-09-30T05:47:43;101406.56;;;10.36;100.00
41862;BME280;27537;57.134;-2.136;2023-09-30T05:50:11;101408.31;;;10.36;100.00
41862;BME280;27537;57.134;-2.136;2023-09-30T05:52:43;101422.38;;;10.30;100.00
41862;BME280;27537;57.134;-2.136;2023-09-30T05:55:13;101424.09;;;10.33;100.00
41862;BME280;27537;57.134;-2.136;2023-09-30T05:57:41;101417.94;;;10.34;100.00
41862;BME280;27537;57.134;-2.136;2023-09-30T06:00:11;101420.84;;;10.21;100.00
41862;BME280;27537;57.134;-2.136;2023-09-30T06:02:41;101422.31;;;10.35;100.00
41862;BME280;27537;57.134;-2.136;2023-09-30T06:05:09;101414.56;;;10.29;100.00
41862;BME280;27537;57.134;-2.136;2023-09-30T06:07:37;101410.69;;;10.45;100.00
41862;BME280;27537;57.134;-2.136;2023-09-30T06:10:04;101422.44;;;10.63;100.00
41862;BME280;27537;57.134;-2.136;2023-09-30T06:12:32;101426.72;;;10.66;100.00
41862;BME280;27537;57.134;-2.136;2023-09-30T06:14:58;101430.19;;;10.33;100.00
41862;BME280;27537;57.134;-2.136;2023-09-30T06:17:25;101425.91;;;10.29;100.00
41862;BME280;27537;57.134;-2.136;2023-09-30T06:19:52;101425.78;;;10.35;100.00
41862;BME280;27537;57.134;-2.136;2023-09-30T06:22:19;101424.63;;;10.45;100.00
41862;BME280;27537;57.134;-2.136;2023-09-30T06:24:45;101417.94;;;10.68;100.00
41862;BME280;27537;57.134;-2.136;2023-09-30T06:27:12;101427.88;;;10.88;100.00
41862;BME280;27537;57.134;-2.136;2023-09-30T06:29:40;101416.59;;;10.85;100.00
41862;BME280;27537;57.134;-2.136;2023-09-30T06:32:09;101429.41;;;10.95;100.00
41862;BME280;27537;57.134;-2.136;2023-09-30T06:34:35;101424.91;;;11.00;100.00
41862;BME280;27537;57.134;-2.136;2023-09-30T06:37:02;101422.97;;;11.07;100.00
41862;BME280;27537;57.134;-2.136;2023-09-30T06:39:29;101432.31;;;11.16;100.00
41862;BME280;27537;57.134;-2.136;2023-09-30T06:41:56;101435.72;;;11.19;100.00
41862;BME280;27537;57.134;-2.136;2023-09-30T06:44:22;101431.28;;;11.21;100.00
41862;BME280;27537;57.134;-2.136;2023-09-30T06:46:51;101436.41;;;11.26;100.00
41862;BME280;27537;57.134;-2.136;2023-09-30T06:49:18;101444.44;;;11.20;100.00
41862;BME280;27537;57.134;-2.136;2023-09-30T06:51:45;101454.25;;;11.12;100.00
41862;BME280;27537;57.134;-2.136;2023-09-30T06:54:12;101458.63;;;11.13;100.00
41862;BME280;27537;57.134;-2.136;2023-09-30T06:56:39;101465.66;;;11.42;100.00
41862;BME280;27537;57.134;-2.136;2023-09-30T06:59:07;101441.94;;;11.45;100.00
41862;BME280;27537;57.134;-2.136;2023-09-30T07:01:34;101455.38;;;11.64;100.00
41862;BME280;27537;57.134;-2.136;2023-09-30T07:04:00;101456.09;;;11.69;100.00
41862;BME280;27537;57.134;-2.136;2023-09-30T07:06:28;101453.47;;;11.69;100.00
41862;BME280;27537;57.134;-2.136;2023-09-30T07:08:55;101454.94;;;11.78;100.00
41862;BME280;27537;57.134;-2.136;2023-09-30T07:11:31;101471.09;;;11.94;100.00
41862;BME280;27537;57.134;-2.136;2023-09-30T07:14:01;101463.53;;;11.83;100.00
41862;BME280;27537;57.134;-2.136;2023-09-30T07:16:27;101467.41;;;12.00;100.00
41862;BME280;27537;57.134;-2.136;2023-09-30T07:18:54;101442.19;;;11.95;100.00
41862;BME280;27537;57.134;-2.136;2023-09-30T07:21:22;101439.41;;;12.00;100.00
41862;BME280;27537;57.134;-2.136;2023-09-30T07:23:48;101440.88;;;12.09;100.00
41862;BME280;27537;57.134;-2.136;2023-09-30T07:26:15;101448.56;;;12.15;100.00
41862;BME280;27537;57.134;-2.136;2023-09-30T07:28:42;101444.91;;;12.19;100.00
41862;BME280;27537;57.134;-2.136;2023-09-30T07:31:08;101440.69;;;12.15;100.00
41862;BME280;27537;57.134;-2.136;2023-09-30T07:33:35;101449.22;;;12.22;100.00
41862;BME280;27537;57.134;-2.136;2023-09-30T07:36:02;101458.75;;;12.24;100.00
41862;BME280;27537;57.134;-2.136;2023-09-30T07:38:29;101456.84;;;12.29;100.00
41862;BME280;27537;57.134;-2.136;2023-09-30T07:40:56;101451.84;;;12.22;100.00
41862;BME280;27537;57.134;-2.136;2023-09-30T07:43:22;101458.78;;;12.23;100.00
41862;BME280;27537;57.134;-2.136;2023-09-30T07:45:49;101460.47;;;12.25;100.00
41862;BME280;27537;57.134;-2.136;2023-09-30T07:48:16;101464.44;;;12.37;100.00
41862;BME280;27537;57.134;-2.136;2023-09-30T07:50:43;101473.13;;;12.39;100.00
41862;BME280;27537;57.134;-2.136;2023-09-30T07:53:09;101482.41;;;12.49;100.00
41862;BME280;27537;57.134;-2.136;2023-09-30T07:55:36;101484.91;;;12.54;100.00
41862;BME280;27537;57.134;-2.136;2023-09-30T07:58:03;101469.13;;;12.54;100.00
41862;BME280;27537;57.134;-2.136;2023-09-30T08:00:29;101470.00;;;12.54;100.00
41862;BME280;27537;57.134;-2.136;2023-09-30T08:02:56;101465.59;;;12.55;100.00
41862;BME280;27537;57.134;-2.136;2023-09-30T08:05:25;101477.78;;;12.58;100.00
41862;BME280;27537;57.134;-2.136;2023-09-30T08:07:51;101480.81;;;12.45;100.00
41862;BME280;27537;57.134;-2.136;2023-09-30T08:10:18;101487.84;;;12.45;100.00
41862;BME280;27537;57.134;-2.136;2023-09-30T08:12:45;101480.78;;;12.20;100.00
41862;BME280;27537;57.134;-2.136;2023-09-30T08:15:18;101471.84;;;12.26;100.00
41862;BME280;27537;57.134;-2.136;2023-09-30T08:17:45;101476.31;;;12.22;100.00
41862;BME280;27537;57.134;-2.136;2023-09-30T08:20:11;101466.81;;;12.18;100.00
41862;BME280;27537;57.134;-2.136;2023-09-30T08:22:39;101483.34;;;12.22;100.00
41862;BME280;27537;57.134;-2.136;2023-09-30T08:25:06;101489.06;;;12.34;100.00
41862;BME280;27537;57.134;-2.136;2023-09-30T08:27:33;101492.06;;;12.49;100.00
41862;BME280;27537;57.134;-2.136;2023-09-30T08:30:00;101487.34;;;12.59;100.00
41862;BME280;27537;57.134;-2.136;2023-09-30T08:32:27;101492.69;;;12.57;100.00
41862;BME280;27537;57.134;-2.136;2023-09-30T08:34:54;101496.53;;;12.47;100.00
41862;BME280;27537;57.134;-2.136;2023-09-30T08:37:21;101498.97;;;12.51;100.00
41862;BME280;27537;57.134;-2.136;2023-09-30T08:39:47;101493.59;;;12.56;100.00
41862;BME280;27537;57.134;-2.136;2023-09-30T08:42:14;101504.56;;;12.67;100.00
41862;BME280;27537;57.134;-2.136;2023-09-30T08:44:42;101500.50;;;12.59;100.00
41862;BME280;27537;57.134;-2.136;2023-09-30T08:47:09;101508.97;;;12.67;100.00
41862;BME280;27537;57.134;-2.136;2023-09-30T08:49:38;101515.31;;;12.61;100.00
41862;BME280;27537;57.134;-2.136;2023-09-30T08:52:09;101516.16;;;12.62;100.00
41862;BME280;27537;57.134;-2.136;2023-09-30T08:54:37;101510.97;;;12.85;100.00
41862;BME280;27537;57.134;-2.136;2023-09-30T08:57:04;101501.97;;;12.93;100.00
41862;BME280;27537;57.134;-2.136;2023-09-30T08:59:34;101504.44;;;12.97;100.00
41862;BME280;27537;57.134;-2.136;2023-09-30T09:02:02;101503.16;;;13.09;100.00
41862;BME280;27537;57.134;-2.136;2023-09-30T09:04:29;101499.53;;;13.11;100.00
41862;BME280;27537;57.134;-2.136;2023-09-30T09:06:56;101489.25;;;13.29;100.00
41862;BME280;27537;57.134;-2.136;2023-09-30T09:09:22;101466.50;;;13.04;100.00
41862;BME280;27537;57.134;-2.136;2023-09-30T09:11:50;101498.09;;;13.28;100.00
41862;BME280;27537;57.134;-2.136;2023-09-30T09:14:17;101492.66;;;13.33;100.00
41862;BME280;27537;57.134;-2.136;2023-09-30T09:16:54;101486.78;;;13.50;100.00
41862;BME280;27537;57.134;-2.136;2023-09-30T09:19:21;101483.00;;;13.33;100.00
41862;BME280;27537;57.134;-2.136;2023-09-30T09:22:01;101499.75;;;13.54;100.00
41862;BME280;27537;57.134;-2.136;2023-09-30T09:24:35;101487.69;;;13.48;100.00
41862;BME280;27537;57.134;-2.136;2023-09-30T09:27:12;101499.69;;;13.56;100.00
41862;BME280;27537;57.134;-2.136;2023-09-30T09:29:39;101499.22;;;13.68;100.00
41862;BME280;27537;57.134;-2.136;2023-09-30T09:32:13;101492.44;;;13.84;100.00
41862;BME280;27537;57.134;-2.136;2023-09-30T09:34:42;101486.44;;;13.81;100.00
41862;BME280;27537;57.134;-2.136;2023-09-30T09:39:52;101484.25;;;13.92;100.00
41862;BME280;27537;57.134;-2.136;2023-09-30T09:42:32;101487.63;;;13.96;100.00
41862;BME280;27537;57.134;-2.136;2023-09-30T09:45:04;101489.28;;;13.98;100.00
41862;BME280;27537;57.134;-2.136;2023-09-30T09:47:33;101491.16;;;13.95;100.00
41862;BME280;27537;57.134;-2.136;2023-09-30T09:50:03;101483.88;;;14.01;100.00
41862;BME280;27537;57.134;-2.136;2023-09-30T09:52:31;101476.91;;;14.22;100.00
41862;BME280;27537;57.134;-2.136;2023-09-30T09:55:01;101462.88;;;14.22;100.00
41862;BME280;27537;57.134;-2.136;2023-09-30T09:57:30;101464.22;;;14.10;100.00
41862;BME280;27537;57.134;-2.136;2023-09-30T09:59:58;101485.34;;;14.31;100.00
41862;BME280;27537;57.134;-2.136;2023-09-30T10:02:26;101475.28;;;14.40;100.00
41862;BME280;27537;57.134;-2.136;2023-09-30T10:04:55;101463.16;;;14.36;100.00
41862;BME280;27537;57.134;-2.136;2023-09-30T10:07:30;101469.16;;;14.40;100.00
41862;BME280;27537;57.134;-2.136;2023-09-30T10:10:01;101482.28;;;14.19;100.00
41862;BME280;27537;57.134;-2.136;2023-09-30T10:12:36;101491.53;;;13.85;100.00
41862;BME280;27537;57.134;-2.136;2023-09-30T10:20:39;101483.91;;;13.79;100.00
41862;BME280;27537;57.134;-2.136;2023-09-30T10:25:44;101488.59;;;13.93;100.00
41862;BME280;27537;57.134;-2.136;2023-09-30T10:31:09;101492.94;;;14.16;100.00
41862;BME280;27537;57.134;-2.136;2023-09-30T10:36:36;101457.16;;;14.33;100.00
41862;BME280;27537;57.134;-2.136;2023-09-30T10:39:05;101459.28;;;14.45;100.00
41862;BME280;27537;57.134;-2.136;2023-09-30T10:44:32;101483.72;;;14.49;100.00
41862;BME280;27537;57.134;-2.136;2023-09-30T10:47:00;101477.97;;;14.61;100.00
41862;BME280;27537;57.134;-2.136;2023-09-30T10:51:58;101497.69;;;14.51;100.00
41862;BME280;27537;57.134;-2.136;2023-09-30T10:54:31;101495.81;;;14.75;100.00
41862;BME280;27537;57.134;-2.136;2023-09-30T10:56:59;101487.88;;;14.54;100.00
41862;BME280;27537;57.134;-2.136;2023-09-30T10:59:28;101475.50;;;14.56;100.00
41862;BME280;27537;57.134;-2.136;2023-09-30T11:01:57;101467.69;;;14.53;100.00
41862;BME280;27537;57.134;-2.136;2023-09-30T11:04:24;101478.63;;;14.66;100.00
41862;BME280;27537;57.134;-2.136;2023-09-30T11:06:54;101479.75;;;14.81;100.00
41862;BME280;27537;57.134;-2.136;2023-09-30T11:09:22;101459.44;;;14.83;100.00
41862;BME280;27537;57.134;-2.136;2023-09-30T11:11:51;101469.25;;;15.19;100.00
41862;BME280;27537;57.134;-2.136;2023-09-30T11:14:28;101466.97;;;15.11;100.00
41862;BME280;27537;57.134;-2.136;2023-09-30T11:17:02;101470.16;;;14.99;100.00
41862;BME280;27537;57.134;-2.136;2023-09-30T11:19:35;101475.97;;;15.26;100.00
41862;BME280;27537;57.134;-2.136;2023-09-30T11:22:03;101469.97;;;15.23;100.00
41862;BME280;27537;57.134;-2.136;2023-09-30T11:24:35;101468.84;;;15.09;100.00
41862;BME280;27537;57.134;-2.136;2023-09-30T11:27:03;101462.13;;;15.02;100.00
41862;BME280;27537;57.134;-2.136;2023-09-30T11:29:30;101448.53;;;14.91;100.00
41862;BME280;27537;57.134;-2.136;2023-09-30T11:31:57;101442.94;;;14.98;100.00
41862;BME280;27537;57.134;-2.136;2023-09-30T11:34:34;101443.84;;;14.97;100.00
41862;BME280;27537;57.134;-2.136;2023-09-30T11:37:01;101446.38;;;15.00;100.00
41862;BME280;27537;57.134;-2.136;2023-09-30T11:39:29;101434.91;;;15.02;100.00
41862;BME280;27537;57.134;-2.136;2023-09-30T11:41:57;101443.09;;;15.14;100.00
41862;BME280;27537;57.134;-2.136;2023-09-30T11:44:25;101427.41;;;15.11;100.00
41862;BME280;27537;57.134;-2.136;2023-09-30T11:46:55;101442.25;;;15.33;100.00
41862;BME280;27537;57.134;-2.136;2023-09-30T11:51:54;101438.69;;;15.15;100.00
41862;BME280;27537;57.134;-2.136;2023-09-30T11:54:21;101444.72;;;15.17;100.00
41862;BME280;27537;57.134;-2.136;2023-09-30T11:56:49;101427.06;;;15.19;100.00
41862;BME280;27537;57.134;-2.136;2023-09-30T11:59:17;101442.25;;;15.33;100.00
41862;BME280;27537;57.134;-2.136;2023-09-30T12:01:46;101440.69;;;15.29;100.00
41862;BME280;27537;57.134;-2.136;2023-09-30T12:04:32;101435.84;;;15.19;100.00
41862;BME280;27537;57.134;-2.136;2023-09-30T12:06:59;101435.22;;;15.33;100.00
41862;BME280;27537;57.134;-2.136;2023-09-30T12:09:26;101433.41;;;15.34;100.00
41862;BME280;27537;57.134;-2.136;2023-09-30T12:11:54;101431.47;;;15.18;100.00
41862;BME280;27537;57.134;-2.136;2023-09-30T12:14:22;101437.69;;;14.78;100.00
41862;BME280;27537;57.134;-2.136;2023-09-30T12:16:49;101446.38;;;15.00;100.00
41862;BME280;27537;57.134;-2.136;2023-09-30T12:19:17;101427.44;;;14.91;100.00
41862;BME280;27537;57.134;-2.136;2023-09-30T12:21:45;101438.44;;;15.00;100.00
41862;BME280;27537;57.134;-2.136;2023-09-30T12:24:15;101432.16;;;15.03;100.00
41862;BME280;27537;57.134;-2.136;2023-09-30T12:26:44;101425.94;;;14.85;100.00
41862;BME280;27537;57.134;-2.136;2023-09-30T12:29:15;101433.81;;;14.66;100.00
41862;BME280;27537;57.134;-2.136;2023-09-30T12:31:44;101432.53;;;14.75;100.00
41862;BME280;27537;57.134;-2.136;2023-09-30T12:34:19;101447.78;;;14.68;100.00
41862;BME280;27537;57.134;-2.136;2023-09-30T12:36:46;101444.16;;;14.71;100.00
41862;BME280;27537;57.134;-2.136;2023-09-30T12:39:14;101433.19;;;14.80;100.00
41862;BME280;27537;57.134;-2.136;2023-09-30T12:41:43;101424.09;;;14.87;100.00
41862;BME280;27537;57.134;-2.136;2023-09-30T12:44:12;101435.34;;;14.72;100.00
41862;BME280;27537;57.134;-2.136;2023-09-30T12:46:39;101434.56;;;14.70;100.00
41862;BME280;27537;57.134;-2.136;2023-09-30T12:49:07;101436.50;;;14.85;100.00
41862;BME280;27537;57.134;-2.136;2023-09-30T12:51:34;101443.69;;;14.81;100.00
41862;BME280;27537;57.134;-2.136;2023-09-30T12:54:02;101447.03;;;14.85;100.00
41862;BME280;27537;57.134;-2.136;2023-09-30T12:56:29;101429.22;;;14.90;100.00
41862;BME280;27537;57.134;-2.136;2023-09-30T12:58:57;101426.78;;;14.67;100.00
41862;BME280;27537;57.134;-2.136;2023-09-30T13:01:24;101453.19;;;14.86;100.00